Ava, OH

5:51 AM EDT on July 23, 2014 (GMT -0400)
Downtown Cambridge (KOHCAMBR5) Elev 876 ft | 40.03 °N, 81.59 °W | Change Station

Current weather conditions updated 3 seconds ago

Rain
Rain
72.0 °F
Feels Like 72.0 °F
N
4.0
Wind Variable Wind from SW
Gusts 4.0 mph

Today is forecast to be Cooler than yesterday. Thunderstorms developing in the afternoon.

Today
High -- | Low -- °F
--% Chance of Precip.
Yesterday
High -- | Low -- °F
Precip. -- in
6:17 AM 8:48 PM
Waning Crescent, 11% visible
Pressure 30.00 in
Visibility 7.0 miles
Clouds Scattered Clouds 5000 ft
Mostly Cloudy 6500 ft
Dew Point 69 °F
Humidity 91%
Rainfall 0.00 in
Snow Depth Not available.
UV 0 out of 12
Pollen 5.90 out of 12
Air Quality Not available.
Flu Activity Not available.
METAR KZZV 230853Z AUTO 33004KT 7SM SCT050 BKN065 22/20 A3002 RMK AO2 SLP157 T02170200 55004

More Conditions Fewer Conditions

Pressure 30.00 in
Visibility 7.0 miles
Clouds Scattered Clouds 5000 ft
Mostly Cloudy 6500 ft
Dew Point 69 °F
Humidity 91%
Rainfall 0.00 in
Snow Depth Not available.
UV 0 out of 12
Pollen 5.90 out of 12
Air Quality Not available.
Flu Activity Not available.
METAR KZZV 230853Z AUTO 33004KT 7SM SCT050 BKN065 22/20 A3002 RMK AO2 SLP157 T02170200 55004

More Conditions Fewer Conditions

10-Day Weather Forecast

Almanac

Astronomy

Jul. 23, 2014 Rise Set
Actual Time 6:17 AM EDT 8:48 PM EDT
Civil Twilight 5:46 AM EDT 9:18 PM EDT
Nautical Twilight 5:07 AM EDT 9:57 PM EDT
Astronomical Twilight 4:24 AM EDT 10:40 PM EDT
Moon 3:34 AM EDT 6:15 PM EDT
Length of Visible Light 15h 32m
Length of Day
14h 30m
Tomorrow will be 1m 42s shorter.
Waning Crescent, 11% of the Moon is Illuminated
Today
Waning Crescent
Jul 26
New
Aug 3
First Quarter
Aug 10
Full
Aug 17
Last Quarter

Today's Extremes

State Highs State Lows

Community

WunderPhotos

Upload Photos

1,736,535 photos uploaded!

Nearby

Snow Depth

Station Depth Elevation
No new snow has been reported.

Earthquake Activity

City Distance Mag. Time & Date
No recent earthquake activity has been reported nearby.
Minimum magnitude displayed is 2.5.

Coastal Water Temperatures

Place Temperature
No Stations Reporting

Nearby Weather Stations

Station Location Temp. Heat Index Dew Point Humidity Wind Precip. Elev Updated Type
Downtown Cambridge, Cambridge, OH 72.0 °F - 69 °F 91% SW  at  4.0 mph 0.00 in / hr 876 ft 5:51 AM EDT Rapid Fire
BEVERLY, OH 70.9 °F - 71 °F 100% North  at  0.0 mph 0.00 in / hr 702 ft 5:51 AM EDT Rapid Fire
WISP in Watertown Ohio, Waterford, OH 69.7 °F - 70 °F 100% SE  at  0.0 mph 0.00 in / hr 774 ft 4:38 AM CDT Normal
APRSWXNET Zanesville OH , Zanesville, OH 73 °F 70 °F 71 °F 92% SW  at  0 mph 0.00 in / hr 839 ft 5:04 AM EDT MADIS

Show More Stations Show Fewer Stations